Time;durP1;ratioP1;P1;durP2;ratioP2;P2;SDS_P1;SDS_P2;PMS_P1;PMS_P2;Temp;Humidity;BMP_temperature;BMP_pressure;BME280_temperature;BME280_humidity;BME280_pressure;Samples;Min_cycle;Max_cycle;Signal;HPM_P1;HPM_P2
2021/11/29 00:02:02;;;;;;;17.73;9.87;;;4.70;99.90;;;;;;4938128;29;20301;-87
2021/11/29 00:04:28;;;;;;;23.50;10.10;;;4.80;99.90;;;;;;4938301;29;20608;-88
2021/11/29 00:06:53;;;;;;;23.03;9.70;;;4.70;99.90;;;;;;4955646;28;20201;-82
2021/11/29 00:09:19;;;;;;;27.50;12.10;;;4.70;99.90;;;;;;4938647;28;20652;-87
2021/11/29 00:11:44;;;;;;;29.40;15.83;;;4.80;99.90;;;;;;4939702;28;20188;-87
2021/11/29 00:14:10;;;;;;;26.80;11.13;;;4.80;99.90;;;;;;4972524;28;20266;-87
2021/11/29 00:16:36;;;;;;;23.40;11.13;;;4.70;99.90;;;;;;4942286;28;20584;-87
2021/11/29 00:19:04;;;;;;;24.00;16.00;;;4.60;99.90;;;;;;4949431;29;20585;-87
2021/11/29 00:21:33;;;;;;;27.50;12.00;;;4.60;99.90;;;;;;4938249;29;20247;-87
2021/11/29 00:23:58;;;;;;;66.37;34.17;;;4.60;99.90;;;;;;4938025;29;20195;-87
2021/11/29 00:26:24;;;;;;;45.37;19.93;;;4.50;99.90;;;;;;4948341;28;20229;-86
2021/11/29 00:28:50;;;;;;;41.10;21.00;;;4.50;99.90;;;;;;4951031;28;20223;-85
2021/11/29 00:31:16;;;;;;;23.53;12.70;;;4.40;99.90;;;;;;4955466;28;20651;-84
2021/11/29 00:33:42;;;;;;;84.87;42.00;;;4.40;99.90;;;;;;4942280;29;20194;-84
2021/11/29 00:36:08;;;;;;;31.10;17.43;;;4.30;99.90;;;;;;4939117;28;20185;-88
2021/11/29 00:38:34;;;;;;;29.20;14.23;;;4.30;99.90;;;;;;4935224;29;20183;-84
2021/11/29 00:41:00;;;;;;;69.70;36.47;;;4.20;99.90;;;;;;4934846;28;20214;-84
2021/11/29 00:43:26;;;;;;;86.20;47.87;;;4.10;99.90;;;;;;4937536;29;20225;-85
2021/11/29 00:45:52;;;;;;;56.07;31.23;;;4.10;99.90;;;;;;4935817;29;20179;-86
2021/11/29 00:48:18;;;;;;;31.77;16.40;;;4.20;99.90;;;;;;4928919;29;20176;-84
2021/11/29 00:50:44;;;;;;;43.00;26.90;;;4.10;99.90;;;;;;4943494;28;20570;-84
2021/11/29 00:53:12;;;;;;;38.60;21.33;;;4.20;99.90;;;;;;4934677;28;20274;-85
2021/11/29 00:55:38;;;;;;;29.37;15.50;;;4.30;99.90;;;;;;4922675;29;20187;-85
2021/11/29 00:58:05;;;;;;;41.30;25.20;;;4.20;99.90;;;;;;4923460;28;20189;-84
2021/11/29 01:00:31;;;;;;;29.77;18.43;;;4.10;99.90;;;;;;4944262;28;20171;-83
2021/11/29 01:02:58;;;;;;;29.87;19.70;;;4.20;99.90;;;;;;4936975;29;20211;-84
2021/11/29 01:05:23;;;;;;;35.30;20.57;;;4.10;99.90;;;;;;4959898;28;20228;-84
2021/11/29 01:07:49;;;;;;;30.80;18.30;;;4.10;99.90;;;;;;4938958;29;20253;-84
2021/11/29 01:10:17;;;;;;;28.60;16.83;;;4.20;99.90;;;;;;4961417;28;20187;-84
2021/11/29 01:12:44;;;;;;;23.90;15.67;;;4.20;99.90;;;;;;4937411;28;20245;-84
2021/11/29 01:15:15;;;;;;;24.90;12.43;;;4.20;99.90;;;;;;4937379;28;20199;-84
2021/11/29 01:17:42;;;;;;;25.53;14.30;;;4.10;99.90;;;;;;4936978;28;20211;-84
2021/11/29 01:20:10;;;;;;;30.13;17.20;;;4.20;99.90;;;;;;4937156;28;20179;-84
2021/11/29 01:22:35;;;;;;;32.53;19.53;;;4.10;99.90;;;;;;4953945;28;20231;-84
2021/11/29 01:25:01;;;;;;;22.47;12.30;;;4.10;99.90;;;;;;4936982;29;20206;-83
2021/11/29 01:27:27;;;;;;;26.67;15.70;;;4.10;99.90;;;;;;4961305;28;20211;-84
2021/11/29 01:29:52;;;;;;;25.80;13.93;;;4.10;99.90;;;;;;4937229;29;20198;-84
2021/11/29 01:32:19;;;;;;;28.43;15.87;;;4.00;99.90;;;;;;4937221;28;20214;-84
2021/11/29 01:34:44;;;;;;;19.50;12.13;;;4.00;99.90;;;;;;4937096;29;20183;-83
2021/11/29 01:37:10;;;;;;;28.37;16.70;;;4.10;99.90;;;;;;4937804;29;20199;-88
2021/11/29 01:39:35;;;;;;;18.70;10.63;;;4.10;99.90;;;;;;4940644;28;20187;-88
2021/11/29 01:42:01;;;;;;;29.73;17.80;;;4.00;99.90;;;;;;4948461;29;20203;-88
2021/11/29 01:44:28;;;;;;;22.97;12.83;;;4.00;99.90;;;;;;4938478;28;20289;-83
2021/11/29 01:46:54;;;;;;;17.93;11.73;;;3.90;99.90;;;;;;4957663;28;20191;-83
2021/11/29 01:49:19;;;;;;;16.63;10.10;;;4.00;99.90;;;;;;4940438;29;20193;-84
2021/11/29 01:51:52;;;;;;;20.40;12.20;;;4.10;99.90;;;;;;4939322;28;20272;-84
2021/11/29 01:54:18;;;;;;;18.07;10.50;;;4.00;99.90;;;;;;4940936;29;20671;-87
2021/11/29 01:56:45;;;;;;;29.00;18.47;;;3.90;99.90;;;;;;4949363;28;20197;-88
2021/11/29 01:59:11;;;;;;;16.63;11.53;;;4.10;99.90;;;;;;4945956;28;20182;-88
2021/11/29 02:01:36;;;;;;;26.57;18.07;;;4.10;99.90;;;;;;4941500;29;20243;-87
2021/11/29 02:04:03;;;;;;;17.47;12.30;;;4.10;99.90;;;;;;4940727;29;20680;-86
2021/11/29 02:06:32;;;;;;;19.53;12.73;;;4.00;99.90;;;;;;4952051;28;20224;-88
2021/11/29 02:08:58;;;;;;;14.13;9.73;;;4.00;99.90;;;;;;4942349;28;20250;-87
2021/11/29 02:11:25;;;;;;;13.87;9.33;;;3.90;99.90;;;;;;4940773;29;20185;-84
2021/11/29 02:13:56;;;;;;;18.60;12.13;;;4.00;99.90;;;;;;4940284;28;20185;-87
2021/11/29 02:16:22;;;;;;;13.60;9.80;;;3.90;99.90;;;;;;4941070;29;20293;-88
2021/11/29 02:18:48;;;;;;;21.07;14.43;;;4.00;99.90;;;;;;4940726;28;20320;-87
2021/11/29 02:21:18;;;;;;;22.00;11.13;;;4.00;99.90;;;;;;4941239;29;20212;-87
2021/11/29 02:24:06;;;;;;;12.97;8.53;;;4.10;99.90;;;;;;4940771;29;20234;-86
2021/11/29 02:26:34;;;;;;;13.77;9.10;;;4.00;99.90;;;;;;4940868;29;20213;-88
2021/11/29 02:29:13;;;;;;;14.70;9.30;;;4.00;99.90;;;;;;4940001;28;20188;-87
2021/11/29 02:31:43;;;;;;;13.20;9.03;;;4.00;99.90;;;;;;4940720;29;20217;-88
2021/11/29 02:34:12;;;;;;;19.53;12.93;;;3.90;99.90;;;;;;4940497;28;20258;-88
2021/11/29 02:36:38;;;;;;;13.60;9.30;;;3.90;99.90;;;;;;4940587;29;20187;-87
2021/11/29 02:39:06;;;;;;;16.13;10.67;;;3.90;99.90;;;;;;4940414;29;20190;-87
2021/11/29 02:41:32;;;;;;;23.77;16.43;;;3.90;99.90;;;;;;4957224;28;20217;-88
2021/11/29 02:43:58;;;;;;;15.43;10.20;;;3.90;99.90;;;;;;4940234;29;20293;-87
2021/11/29 02:46:23;;;;;;;16.87;11.53;;;3.90;99.90;;;;;;4945802;28;20183;-87
2021/11/29 02:48:51;;;;;;;11.00;7.53;;;3.90;99.90;;;;;;4980297;28;20581;-88
2021/11/29 02:51:32;;;;;;;10.23;7.60;;;3.80;99.90;;;;;;4940557;28;20183;-89
2021/11/29 02:54:06;;;;;;;11.13;7.97;;;3.80;99.90;;;;;;4966814;28;20201;-87
2021/11/29 02:56:36;;;;;;;10.07;7.50;;;3.80;99.90;;;;;;4959690;28;20191;-87
2021/11/29 02:59:03;;;;;;;13.10;10.03;;;3.80;99.90;;;;;;4957162;28;20235;-87
2021/11/29 03:01:28;;;;;;;17.03;12.33;;;3.80;99.90;;;;;;4971540;28;20246;-88
2021/11/29 03:03:54;;;;;;;10.97;7.83;;;3.80;99.90;;;;;;4957253;28;20262;-88
2021/11/29 03:06:21;;;;;;;13.47;8.10;;;3.70;99.90;;;;;;4940114;29;20218;-88
2021/11/29 03:08:47;;;;;;;13.07;8.63;;;3.70;99.90;;;;;;4939927;29;20194;-87
2021/11/29 03:11:14;;;;;;;12.27;7.83;;;3.70;99.90;;;;;;4939962;29;20206;-88
2021/11/29 03:13:40;;;;;;;14.00;8.27;;;3.70;99.90;;;;;;4942478;28;20198;-88
2021/11/29 16:30:48;;;;;;;8.23;3.03;;;7.30;99.90;;;;;;5495874;23;20317;-84
2021/11/29 16:33:17;;;;;;;9.17;3.80;;;7.10;99.90;;;;;;4974553;28;20183;-84
2021/11/29 16:35:43;;;;;;;12.50;3.70;;;7.10;99.90;;;;;;4983104;28;20174;-82
2021/11/29 16:38:09;;;;;;;9.70;3.27;;;7.20;99.90;;;;;;4974136;28;20819;-81
2021/11/29 16:40:36;;;;;;;11.23;4.00;;;7.30;99.90;;;;;;4971245;28;20529;-82
2021/11/29 16:43:03;;;;;;;8.33;3.87;;;7.40;99.90;;;;;;4973801;28;20214;-82
2021/11/29 16:45:29;;;;;;;11.47;4.40;;;7.40;99.90;;;;;;4967140;28;20221;-82
2021/11/29 16:48:00;;;;;;;11.30;4.57;;;7.50;99.90;;;;;;4973545;28;20183;-79
2021/11/29 16:50:27;;;;;;;8.93;4.20;;;7.40;99.90;;;;;;4974292;28;20179;-85
2021/11/29 16:52:53;;;;;;;9.07;4.10;;;7.40;99.90;;;;;;4973531;28;20181;-85
2021/11/29 16:55:19;;;;;;;12.53;4.90;;;7.30;99.90;;;;;;4973848;28;20187;-81
2021/11/29 16:57:44;;;;;;;13.07;4.73;;;7.40;99.90;;;;;;4973678;28;20186;-81
2021/11/29 17:00:17;;;;;;;13.17;4.43;;;7.40;99.90;;;;;;4973458;28;20183;-82
2021/11/29 17:02:44;;;;;;;10.53;4.70;;;7.40;99.90;;;;;;4974292;28;20219;-83
2021/11/29 17:05:10;;;;;;;12.60;4.33;;;7.40;99.90;;;;;;4973841;28;20186;-83
2021/11/29 17:07:37;;;;;;;9.80;4.10;;;7.40;99.90;;;;;;4949991;28;20278;-82
2021/11/29 17:10:04;;;;;;;11.30;4.57;;;7.40;99.90;;;;;;4963030;28;20318;-81
2021/11/29 17:12:29;;;;;;;7.73;3.17;;;7.30;99.90;;;;;;4955974;28;20191;-78
2021/11/29 17:14:55;;;;;;;9.77;3.07;;;7.30;99.90;;;;;;4940619;28;20179;-82
2021/11/29 17:17:21;;;;;;;10.27;3.97;;;7.20;99.90;;;;;;4961173;28;20190;-83
2021/11/29 17:19:47;;;;;;;9.40;3.53;;;7.10;99.90;;;;;;4964410;28;20234;-83
2021/11/29 17:22:14;;;;;;;7.67;3.40;;;7.10;99.90;;;;;;4968272;28;20308;-80
2021/11/29 17:24:40;;;;;;;7.10;3.17;;;7.30;99.90;;;;;;4963023;28;20203;-83
2021/11/29 17:27:06;;;;;;;11.00;3.47;;;7.10;99.90;;;;;;4963678;28;20663;-80
2021/11/29 17:29:31;;;;;;;10.23;3.43;;;7.00;99.90;;;;;;4966522;28;20198;-82
2021/11/29 17:31:57;;;;;;;16.83;4.47;;;7.00;99.90;;;;;;4977223;28;20218;-82
2021/11/29 17:34:23;;;;;;;13.13;3.57;;;7.00;99.90;;;;;;4977434;28;20266;-80
2021/11/29 17:36:49;;;;;;;8.70;4.63;;;7.00;99.90;;;;;;4960028;28;20193;-83
2021/11/29 17:39:16;;;;;;;9.23;3.10;;;7.00;99.90;;;;;;4977240;28;20214;-83
2021/11/29 17:41:42;;;;;;;8.43;3.60;;;7.00;99.90;;;;;;4976510;28;20210;-83
2021/11/29 17:44:08;;;;;;;15.40;4.03;;;7.00;99.90;;;;;;4976826;28;20179;-83
2021/11/29 17:46:36;;;;;;;9.27;3.17;;;7.00;99.90;;;;;;4976965;28;20186;-83
2021/11/29 17:49:02;;;;;;;8.30;2.93;;;6.90;99.90;;;;;;4959386;28;20222;-84
2021/11/29 17:51:29;;;;;;;10.90;3.60;;;6.70;99.90;;;;;;4971386;28;20196;-82
2021/11/29 17:53:55;;;;;;;7.53;2.77;;;6.60;99.90;;;;;;4965949;28;20217;-83
2021/11/29 17:56:21;;;;;;;10.10;3.23;;;6.60;99.90;;;;;;4976425;28;20643;-84
2021/11/29 17:58:47;;;;;;;8.17;3.53;;;6.50;99.90;;;;;;4977154;28;20321;-82
2021/11/29 18:01:13;;;;;;;7.53;3.13;;;6.60;99.90;;;;;;4971215;28;20274;-82
2021/11/29 18:03:39;;;;;;;9.77;3.23;;;6.60;99.90;;;;;;4975014;28;20694;-82
2021/11/29 18:06:08;;;;;;;9.00;3.10;;;6.40;99.90;;;;;;4976831;28;20280;-83
2021/11/29 18:14:00;;;;;;;9.93;3.80;;;6.30;99.90;;;;;;4963933;28;20658;-83
2021/11/29 18:16:27;;;;;;;11.47;3.60;;;6.40;99.90;;;;;;4976369;28;20260;-80
2021/11/29 18:18:52;;;;;;;7.17;3.60;;;6.40;99.90;;;;;;4976505;28;20197;-83
2021/11/29 18:21:20;;;;;;;9.07;3.80;;;6.50;99.90;;;;;;4976592;28;20273;-82
2021/11/29 18:23:46;;;;;;;13.37;4.00;;;6.50;99.90;;;;;;4976399;28;20241;-83
2021/11/29 18:26:14;;;;;;;10.83;3.77;;;6.50;99.90;;;;;;4975689;28;20214;-84
2021/11/29 18:28:41;;;;;;;10.57;5.10;;;6.50;99.90;;;;;;4975623;28;20191;-82
2021/11/29 18:31:06;;;;;;;10.80;4.47;;;6.40;99.90;;;;;;4976002;28;20281;-78
2021/11/29 18:33:32;;;;;;;14.47;5.33;;;6.30;99.90;;;;;;4976409;28;20219;-83
2021/11/29 18:35:58;;;;;;;13.27;5.00;;;6.20;99.90;;;;;;4976031;28;20241;-78
2021/11/29 18:38:23;;;;;;;16.73;4.57;;;6.30;99.90;;;;;;4977354;28;20186;-85
2021/11/29 18:40:49;;;;;;;12.33;6.27;;;6.30;99.90;;;;;;4975719;28;20198;-82
2021/11/29 18:43:15;;;;;;;23.97;13.70;;;6.30;99.90;;;;;;4976534;28;20211;-85
2021/11/29 18:45:41;;;;;;;10.37;5.23;;;6.10;99.90;;;;;;4975915;28;20182;-84
2021/11/29 18:48:13;;;;;;;17.60;6.30;;;6.00;99.90;;;;;;4976185;28;20218;-84
2021/11/29 18:50:43;;;;;;;11.20;5.27;;;5.90;99.90;;;;;;4976360;28;20281;-84
2021/11/29 18:53:09;;;;;;;25.03;6.70;;;5.90;99.90;;;;;;4976221;28;20182;-84
2021/11/29 18:55:35;;;;;;;10.07;4.47;;;5.80;99.90;;;;;;4974832;28;20198;-83
2021/11/29 18:58:03;;;;;;;13.57;4.73;;;5.80;99.90;;;;;;4975548;28;20179;-83
2021/11/29 19:00:29;;;;;;;13.97;7.40;;;6.00;99.90;;;;;;4976056;28;20249;-84
2021/11/29 19:02:55;;;;;;;15.60;5.90;;;6.10;99.90;;;;;;4975938;28;20626;-83
2021/11/29 19:05:21;;;;;;;14.73;6.63;;;6.20;99.90;;;;;;4975605;28;20190;-84
2021/11/29 19:07:47;;;;;;;18.67;9.57;;;6.20;99.90;;;;;;4977216;28;20582;-84
2021/11/29 19:10:15;;;;;;;14.10;6.50;;;6.20;99.90;;;;;;4975173;28;20193;-84
2021/11/29 19:12:45;;;;;;;18.80;9.43;;;6.10;99.90;;;;;;4976120;28;20218;-84
2021/11/29 19:15:12;;;;;;;36.50;15.60;;;6.20;99.90;;;;;;4975646;28;20186;-85
2021/11/29 19:17:38;;;;;;;34.17;14.20;;;6.10;99.90;;;;;;4975415;28;20186;-82
2021/11/29 19:20:05;;;;;;;33.03;14.27;;;6.00;99.90;;;;;;4975549;28;20526;-84
2021/11/29 19:22:31;;;;;;;297.87;109.70;;;5.90;99.90;;;;;;4975401;28;20242;-85
2021/11/29 19:24:57;;;;;;;19.67;8.37;;;6.00;99.90;;;;;;4975346;28;20298;-85
2021/11/29 19:27:22;;;;;;;14.07;6.20;;;6.00;99.90;;;;;;4975008;28;20191;-83
2021/11/29 19:29:50;;;;;;;19.63;8.23;;;6.00;99.90;;;;;;4975444;28;20278;-86
2021/11/29 19:32:16;;;;;;;22.00;7.80;;;6.00;99.90;;;;;;4974970;28;20197;-85
2021/11/29 19:34:42;;;;;;;12.80;6.03;;;6.00;99.90;;;;;;4975325;28;20175;-83
2021/11/29 19:37:07;;;;;;;21.73;8.40;;;5.90;99.90;;;;;;4976509;28;20183;-83
2021/11/29 19:39:33;;;;;;;23.93;9.90;;;5.80;99.90;;;;;;4962389;28;20763;-83
2021/11/29 19:41:59;;;;;;;24.97;9.63;;;5.80;99.90;;;;;;4974968;28;20276;-83
2021/11/29 19:44:25;;;;;;;14.40;8.40;;;5.80;99.90;;;;;;4975122;28;20179;-85
2021/11/29 19:46:52;;;;;;;16.40;8.17;;;5.80;99.90;;;;;;4975087;28;20199;-84
2021/11/29 19:49:19;;;;;;;13.53;7.20;;;5.90;99.90;;;;;;4974988;28;20274;-84
2021/11/29 19:51:45;;;;;;;25.80;7.43;;;6.00;99.90;;;;;;4982990;28;20193;-85
2021/11/29 19:54:10;;;;;;;15.73;6.87;;;6.00;99.90;;;;;;4946716;28;20188;-85
2021/11/29 19:56:36;;;;;;;18.10;8.23;;;6.00;99.90;;;;;;4974133;28;20190;-85
2021/11/29 19:59:03;;;;;;;15.23;7.07;;;6.00;99.90;;;;;;4974420;28;20186;-83
2021/11/29 20:01:29;;;;;;;13.07;6.50;;;5.90;99.90;;;;;;4965899;28;20195;-83
2021/11/29 20:03:55;;;;;;;12.67;6.50;;;6.00;99.90;;;;;;4964231;28;20647;-85
2021/11/29 20:06:21;;;;;;;13.33;6.63;;;6.00;99.90;;;;;;4974127;28;20194;-83
2021/11/29 20:08:48;;;;;;;17.03;7.23;;;6.00;99.90;;;;;;4968739;28;20195;-84
2021/11/29 20:11:16;;;;;;;11.33;7.27;;;6.00;99.90;;;;;;4964357;28;20667;-85
2021/11/29 20:13:47;;;;;;;11.77;6.87;;;6.00;99.90;;;;;;4960487;28;20194;-85
2021/11/29 20:16:16;;;;;;;10.37;6.80;;;5.90;99.90;;;;;;4957724;28;20207;-85
2021/11/29 20:18:44;;;;;;;16.77;9.03;;;5.70;99.90;;;;;;4964591;28;20272;-82
2021/11/29 20:21:10;;;;;;;16.60;7.03;;;5.60;99.90;;;;;;4959832;28;20213;-78
2021/11/29 20:23:38;;;;;;;12.57;6.97;;;5.60;99.90;;;;;;4959650;28;20231;-81
2021/11/29 20:26:03;;;;;;;16.37;7.13;;;5.50;99.90;;;;;;4965868;28;20191;-82
2021/11/29 20:28:29;;;;;;;14.63;7.67;;;5.60;99.90;;;;;;4959714;28;20280;-83
2021/11/29 20:30:55;;;;;;;13.50;7.70;;;5.70;99.90;;;;;;4961408;28;20206;-82
2021/11/29 20:33:21;;;;;;;16.93;8.17;;;5.70;99.90;;;;;;4959488;28;20191;-83
2021/11/29 20:35:47;;;;;;;14.97;7.70;;;5.80;99.90;;;;;;4966894;28;20230;-81
2021/11/29 20:38:13;;;;;;;15.30;8.03;;;5.70;99.90;;;;;;4964323;28;20183;-83
2021/11/29 20:40:39;;;;;;;16.43;7.07;;;5.80;99.90;;;;;;4961685;28;20596;-80
2021/11/29 20:43:06;;;;;;;15.27;7.57;;;5.70;99.90;;;;;;4960866;28;20230;-83
2021/11/29 20:45:33;;;;;;;19.77;9.40;;;5.60;99.90;;;;;;4962255;28;20193;-82
2021/11/29 20:47:59;;;;;;;17.50;7.73;;;5.50;99.90;;;;;;4960992;28;20614;-82
2021/11/29 20:50:24;;;;;;;18.83;7.73;;;5.50;99.90;;;;;;4944254;28;20195;-83
2021/11/29 20:52:50;;;;;;;15.03;7.33;;;5.50;99.90;;;;;;4964597;28;20187;-81
2021/11/29 20:55:16;;;;;;;18.27;8.00;;;5.50;99.90;;;;;;4958118;28;20592;-83
2021/11/29 20:57:42;;;;;;;18.70;7.97;;;5.50;99.90;;;;;;4973030;28;20229;-85
2021/11/29 21:00:10;;;;;;;13.30;6.57;;;5.40;99.90;;;;;;4970540;28;20209;-84
2021/11/29 21:02:37;;;;;;;14.70;6.80;;;5.50;99.90;;;;;;4966715;28;20272;-85
2021/11/29 21:05:03;;;;;;;15.10;7.57;;;5.50;99.90;;;;;;4972801;28;20190;-85
2021/11/29 21:07:29;;;;;;;13.53;7.07;;;5.50;99.90;;;;;;4972918;28;20259;-83
2021/11/29 21:09:54;;;;;;;18.70;8.20;;;5.40;99.90;;;;;;4972465;28;20692;-84
2021/11/29 21:12:26;;;;;;;18.53;8.40;;;5.30;99.90;;;;;;4955854;28;20187;-85
2021/11/29 21:14:51;;;;;;;15.77;8.30;;;5.40;99.90;;;;;;4973033;28;20190;-85
2021/11/29 21:17:17;;;;;;;16.73;6.83;;;5.30;99.90;;;;;;4950307;28;20233;-84
2021/11/29 21:19:49;;;;;;;19.63;7.67;;;5.30;99.90;;;;;;4955557;28;20234;-84
2021/11/29 21:22:16;;;;;;;16.13;7.30;;;5.30;99.90;;;;;;4966509;28;20333;-84
2021/11/29 21:24:42;;;;;;;21.57;7.07;;;5.20;99.90;;;;;;4966050;28;20557;-84
2021/11/29 21:27:08;;;;;;;12.20;7.23;;;5.20;99.90;;;;;;4971192;28;20193;-85
2021/11/29 21:29:33;;;;;;;14.50;7.00;;;5.30;99.90;;;;;;4971813;28;20190;-85
2021/11/29 21:31:59;;;;;;;15.07;7.37;;;5.40;99.90;;;;;;4956255;28;20198;-85
2021/11/29 21:34:25;;;;;;;12.77;6.23;;;5.30;99.90;;;;;;4971463;28;20189;-85
2021/11/29 21:36:50;;;;;;;19.13;12.00;;;5.20;99.90;;;;;;4973124;28;20277;-84
2021/11/29 21:39:16;;;;;;;19.57;9.63;;;5.00;99.90;;;;;;4973048;28;20194;-84
2021/11/29 21:41:41;;;;;;;41.13;13.20;;;5.00;99.90;;;;;;4973255;28;20190;-85
2021/11/29 21:44:07;;;;;;;14.33;7.53;;;5.00;99.90;;;;;;4973057;28;20187;-86
2021/11/29 21:46:33;;;;;;;22.03;8.37;;;5.00;99.90;;;;;;4970584;28;20567;-85
2021/11/29 21:48:58;;;;;;;30.10;12.00;;;5.10;99.90;;;;;;4966556;28;20266;-83
2021/11/29 21:51:24;;;;;;;20.33;7.50;;;5.10;99.90;;;;;;4972440;28;20244;-83
2021/11/29 21:53:50;;;;;;;15.97;7.70;;;5.00;99.90;;;;;;4972173;28;20183;-85
2021/11/29 21:56:21;;;;;;;13.57;6.60;;;5.00;99.90;;;;;;4954579;28;20857;-83
2021/11/29 21:58:47;;;;;;;16.90;7.73;;;5.10;99.90;;;;;;4973378;28;20195;-84
2021/11/29 22:01:12;;;;;;;13.90;7.43;;;5.00;99.90;;;;;;4974181;28;20252;-85
2021/11/29 22:03:38;;;;;;;14.03;7.17;;;5.00;99.90;;;;;;4976687;28;20221;-84
2021/11/29 22:06:03;;;;;;;13.20;8.17;;;5.00;99.90;;;;;;4977412;28;20179;-84
2021/11/29 22:08:29;;;;;;;17.47;7.90;;;4.90;99.90;;;;;;4975977;28;20194;-84
2021/11/29 22:10:54;;;;;;;24.50;10.87;;;5.00;99.90;;;;;;4959353;28;20205;-85
2021/11/29 22:13:20;;;;;;;25.73;14.43;;;5.00;99.90;;;;;;4976289;28;20675;-82
2021/11/29 22:15:46;;;;;;;18.73;8.40;;;5.10;99.90;;;;;;4976245;28;20269;-85
2021/11/29 22:18:11;;;;;;;16.17;7.80;;;5.20;99.90;;;;;;4975965;28;20205;-85
2021/11/29 22:20:37;;;;;;;16.43;8.40;;;5.20;99.90;;;;;;4969778;28;20304;-84
2021/11/29 22:23:03;;;;;;;17.60;8.67;;;5.20;99.90;;;;;;4968106;28;20218;-85
2021/11/29 22:25:28;;;;;;;20.70;10.60;;;5.30;99.90;;;;;;4976250;28;20191;-84
2021/11/29 22:27:54;;;;;;;27.03;16.07;;;5.30;99.90;;;;;;4975818;28;20195;-82
2021/11/29 22:30:20;;;;;;;24.17;10.77;;;5.20;99.90;;;;;;4963601;28;20599;-82
2021/11/29 22:32:46;;;;;;;28.50;11.70;;;5.20;99.90;;;;;;4960525;28;20205;-83
2021/11/29 22:35:12;;;;;;;23.20;13.60;;;5.30;99.90;;;;;;4964115;28;20194;-83
2021/11/29 22:37:38;;;;;;;21.17;9.03;;;5.30;99.90;;;;;;4975573;28;20229;-84
2021/11/29 22:40:06;;;;;;;16.23;7.80;;;5.40;99.90;;;;;;4976072;28;20178;-82
2021/11/29 22:42:32;;;;;;;18.60;8.03;;;5.40;99.90;;;;;;4975486;28;20245;-83
2021/11/29 22:44:57;;;;;;;19.77;8.37;;;5.30;99.90;;;;;;4958783;28;20269;-84
2021/11/29 22:47:23;;;;;;;23.27;8.27;;;5.20;99.90;;;;;;4974369;28;20212;-83
2021/11/29 22:49:49;;;;;;;20.53;8.27;;;5.10;99.90;;;;;;4975547;28;20183;-82
2021/11/29 22:52:15;;;;;;;16.00;7.80;;;5.20;99.90;;;;;;4973921;28;20197;-84
2021/11/29 22:54:40;;;;;;;15.53;8.27;;;5.10;99.90;;;;;;4975583;28;20191;-85
2021/11/29 22:57:06;;;;;;;17.00;8.20;;;5.30;99.90;;;;;;4974614;28;20265;-90
2021/11/29 22:59:32;;;;;;;15.17;8.30;;;5.30;99.90;;;;;;4957230;28;20562;-90
2021/11/29 23:01:58;;;;;;;18.57;7.60;;;5.40;99.90;;;;;;4951989;28;20725;-89
2021/11/29 23:04:25;;;;;;;21.33;8.40;;;5.40;99.90;;;;;;4958301;28;20191;-90
2021/11/29 23:06:54;;;;;;;19.80;8.60;;;5.50;99.90;;;;;;4963584;28;20191;-90
2021/11/29 23:09:21;;;;;;;17.23;8.17;;;5.40;99.90;;;;;;4976453;28;20201;-87
2021/11/29 23:11:48;;;;;;;17.30;7.70;;;5.50;99.90;;;;;;4977637;28;20182;-87
2021/11/29 23:14:20;;;;;;;21.50;8.60;;;5.40;99.90;;;;;;4962371;28;20186;-88
2021/11/29 23:16:49;;;;;;;19.73;8.00;;;5.40;99.90;;;;;;4960778;28;20628;-88
2021/11/29 23:19:15;;;;;;;18.90;8.00;;;5.50;99.90;;;;;;4965856;28;20541;-88
2021/11/29 23:21:41;;;;;;;15.00;7.33;;;5.50;99.90;;;;;;4956875;28;20186;-88
2021/11/29 23:24:10;;;;;;;13.90;7.60;;;5.40;99.90;;;;;;4958521;28;20293;-89
2021/11/29 23:26:37;;;;;;;16.90;7.30;;;5.40;99.90;;;;;;4968497;28;20178;-89
2021/11/29 23:29:03;;;;;;;13.00;6.50;;;5.30;99.90;;;;;;4958531;28;20634;-88
2021/11/29 23:31:29;;;;;;;15.27;7.60;;;5.30;99.90;;;;;;4959373;28;20742;-88
2021/11/29 23:33:55;;;;;;;17.07;8.30;;;5.30;99.90;;;;;;4959164;28;20182;-88
2021/11/29 23:36:21;;;;;;;16.43;7.10;;;5.40;99.90;;;;;;4959269;28;20178;-88
2021/11/29 23:38:47;;;;;;;13.23;6.23;;;5.40;99.90;;;;;;4959882;28;20183;-89
2021/11/29 23:41:13;;;;;;;13.90;6.77;;;5.40;99.90;;;;;;4958682;28;20274;-88
2021/11/29 23:43:41;;;;;;;16.63;6.90;;;5.40;99.90;;;;;;4969486;28;20320;-88
2021/11/29 23:46:14;;;;;;;14.67;6.17;;;5.30;99.90;;;;;;4962185;28;20183;-87
2021/11/29 23:48:47;;;;;;;15.13;6.97;;;5.30;99.90;;;;;;4957728;28;20198;-88
2021/11/29 23:51:18;;;;;;;12.03;6.17;;;5.20;99.90;;;;;;4958573;28;20182;-88
2021/11/29 23:53:49;;;;;;;12.03;6.10;;;5.40;99.90;;;;;;4959015;28;20226;-88
2021/11/29 23:56:29;;;;;;;9.80;5.20;;;5.40;99.90;;;;;;4958443;28;20191;-88
2021/11/29 23:59:00;;;;;;;11.53;5.73;;;5.40;99.90;;;;;;4967185;28;20185;-89
